M.v.jiaolong Spirit — C6WZ9 — position and weather

sailwx.info

Track history (hours):
 
Tides and Currents Weather Stations Pressure Air Temp Water Temp Dewpoint Dewpoint Depression Visibility Wind Speed Wind Dir Waves Ship Positions

M.v.jiaolong Spirit

Last reported at 2017-Nov-11 05:24 UTC. Time now 2017-Nov-22 18:36 UTC.
Position N 24°23' W 017°03'.
Warning: this ship's position is 11 days out of date.

Length 271 m; draft 9.3 m.

Type: Tanker. MMSI: 309813000.

Date/timePositionNaut miles runAvg speedWind from/ knotsBaromVisibWave heightAir tempDewpointWater temp
2017-Nov-11 05:24N 24°23' W 017°03'511.2
2017-Nov-11 05:00N 24°27' W 017°01'511.1
2017-Nov-11 04:30N 24°32' W 016°59'911.3
2017-Nov-11 03:43N 24°40' W 016°55'311.8
2017-Nov-11 03:25N 24°44' W 016°54'198 6.9
2017-Nov-09 22:46N 27°40' W 015°14'312.2
2017-Nov-09 22:30N 27°43' W 015°12'612.0
2017-Nov-09 22:00N 27°48' W 015°09'611.6
2017-Nov-09 21:31N 27°53' W 015°06'611.4
2017-Nov-09 21:00N 27°59' W 015°04'611.5
2017-Nov-09 20:31N 28°04' W 015°02'611.4
2017-Nov-09 20:00N 28°09' W 014°60'611.3
2017-Nov-09 19:29N 28°15' W 014°57'611.9
2017-Nov-09 19:00N 28°20' W 014°55'612.0
2017-Nov-09 18:30N 28°26' W 014°53'612.0
2017-Nov-09 18:00N 28°32' W 014°52'612.0
2017-Nov-09 17:30N 28°38' W 014°50'6111.2
2017-Nov-09 12:05N 29°36' W 014°32'210.8
2017-Nov-09 11:56N 29°38' W 014°32'  
2017-Nov-04 12:04N 49°45' W 003°36'310.6
2017-Nov-04 11:49N 49°46' W 003°32'310.6
2017-Nov-04 11:30N 49°48' W 003°28'510.6
2017-Nov-04 11:00N 49°50' W 003°21'610.3
2017-Nov-04 10:24N 49°53' W 003°12'4 9.7
2017-Nov-04 09:57N 49°56' W 003°06'4 9.2
2017-Nov-04 09:31N 49°58' W 003°01'4 8.5
2017-Nov-04 09:00N 49°59' W 002°54'4 7.7
2017-Nov-04 08:29N 49°60' W 002°48'4 6.2
2017-Nov-04 07:48N 50°01' W 002°42'2 6.7
2017-Nov-04 07:30N 50°01' W 002°39'23 7.3
2017-Nov-04 04:19N 50°07' W 002°04'3 9.9
2017-Nov-04 04:00N 50°08' W 001°60'510.7
2017-Nov-04 03:30N 50°10' W 001°51'611.6
2017-Nov-04 03:00N 50°11' W 001°43'612.4
2017-Nov-04 02:30N 50°13' W 001°34'713.2
2017-Nov-04 02:00N 50°15' W 001°24'1913.2
2017-Nov-04 00:32N 50°20' W 000°54'012.4
2017-Nov-04 00:30N 50°20' W 000°54'2010.8
2017-Nov-03 22:37N 50°26' W 000°23'1 9.5
2017-Nov-03 22:30N 50°26' W 000°21'4 9.1
2017-Nov-03 22:01N 50°27' W 000°14'4 8.4
2017-Nov-03 21:30N 50°28' W 000°08'4 7.9
2017-Nov-03 21:01N 50°29' W 000°02'4 7.5
2017-Nov-03 20:31N 50°30' E 000°04'4 7.3
2017-Nov-03 20:00N 50°31' E 000°09'4 7.3
2017-Nov-03 19:31N 50°32' E 000°15'4 7.7
2017-Nov-03 19:01N 50°34' E 000°20'4 8.4
2017-Nov-03 18:31N 50°35' E 000°27'5 9.3
2017-Nov-03 18:01N 50°36' E 000°34'5 9.9
2017-Nov-03 17:31N 50°38' E 000°41'510.5
2017-Nov-03 17:00N 50°41' E 000°47'510.8
2017-Nov-03 16:31N 50°44' E 000°54'810.8
2017-Nov-03 15:47N 50°49' E 001°04'410.4
2017-Nov-03 15:26N 50°51' E 001°09'510.1
2017-Nov-03 14:54N 50°54' E 001°16'4 9.6
2017-Nov-03 14:30N 50°57' E 001°21'4 8.9
2017-Nov-03 14:01N 51°00' E 001°25'4 8.1
2017-Nov-03 13:31N 51°03' E 001°29'4 7.1
2017-Nov-03 13:00N 51°06' E 001°33'3 6.5
2017-Nov-03 12:31N 51°08' E 001°37'3 6.4
2017-Nov-03 12:01N 51°10' E 001°41'3 6.8
2017-Nov-03 11:31N 51°13' E 001°44'4 7.2
2017-Nov-03 11:01N 51°16' E 001°48'4 7.6
2017-Nov-03 10:31N 51°19' E 001°51'4 8.6
2017-Nov-03 10:00N 51°23' E 001°54'5 9.4
2017-Nov-03 09:31N 51°27' E 001°58'510.5
2017-Nov-03 09:01N 51°30' E 002°04'611.1
2017-Nov-03 08:31N 51°34' E 002°10'6010.9
2017-Nov-03 03:00N 52°04' E 003°34'510.9
2017-Nov-03 02:30N 52°04' E 003°43'510.3
2017-Nov-03 02:00N 52°04' E 003°51'3 5.4
2017-Nov-03 01:31N 52°02' E 003°55'4 8.4
2017-Nov-03 01:01N 52°00' E 004°01'4 7.2
2017-Nov-03 00:30N 51°58' E 004°05'2 3.9
2017-Nov-03 00:00N 51°58' E 004°02'2 2.7
2017-Nov-02 23:25N 51°58' E 003°59'0 0.0
2017-Nov-02 22:58N 51°58' E 003°59'0 0.0
2017-Nov-02 22:25N 51°58' E 003°59'0 0.0
2017-Nov-02 21:58N 51°58' E 003°59'0 0.0
2017-Nov-02 21:28N 51°58' E 003°59'0 0.0
2017-Nov-02 20:49N 51°58' E 003°59'0 0.0
2017-Nov-02 20:28N 51°58' E 003°59'0 0.0
2017-Nov-02 19:55N 51°58' E 003°59'0 0.0
2017-Nov-02 19:25N 51°58' E 003°59'0 0.0
2017-Nov-02 18:58N 51°58' E 003°59'0 0.0
2017-Nov-02 18:28N 51°58' E 003°59'0 0.0
2017-Nov-02 17:49N 51°58' E 003°59'0 0.0
2017-Nov-02 17:28N 51°58' E 003°59'0 0.0
2017-Nov-02 16:58N 51°58' E 003°59'0 0.0
2017-Nov-02 16:25N 51°58' E 003°59'0 0.0
2017-Nov-02 15:52N 51°58' E 003°59'0 0.0
2017-Nov-02 15:22N 51°58' E 003°59'0 0.0
2017-Nov-02 14:58N 51°58' E 003°59'0 0.0
2017-Nov-02 14:19N 51°58' E 003°59'0 0.0
2017-Nov-02 13:52N 51°58' E 003°59'0 0.0
2017-Nov-02 13:01N 51°58' E 003°59'0 0.0
2017-Nov-02 12:55N 51°58' E 003°59'0 0.0
2017-Nov-02 12:28N 51°58' E 003°59'0 0.0
2017-Nov-02 11:58N 51°58' E 003°59'0 0.0
2017-Nov-02 11:28N 51°58' E 003°59'0 0.0
2017-Nov-02 10:58N 51°58' E 003°59'0 0.0
2017-Nov-02 10:22N 51°58' E 003°59'0 0.0
2017-Nov-02 09:55N 51°58' E 003°59'0 0.0
2017-Nov-02 09:30N 51°58' E 003°59'0 0.0
2017-Nov-02 09:00N 51°58' E 003°59'0 0.4
2017-Nov-02 08:30N 51°58' E 003°60'2 3.1
2017-Nov-02 08:00N 51°58' E 004°02'2 4.3
2017-Nov-02 07:30N 51°58' E 004°06'3 5.7
2017-Nov-02 07:00N 51°57' E 004°10'0 1.0
2017-Nov-02 06:30N 51°56' E 004°10'0 0.0
2017-Nov-02 05:51N 51°56' E 004°10'0 0.0
2017-Nov-02 05:21N 51°56' E 004°10'0 0.0
2017-Nov-02 04:57N 51°56' E 004°10'0 0.0
2017-Nov-02 04:30N 51°56' E 004°10'0 0.0
2017-Nov-02 04:00N 51°56' E 004°10'0 0.0
2017-Nov-02 03:30N 51°56' E 004°10'0 0.0
2017-Nov-02 03:00N 51°56' E 004°10'0 0.0
2017-Nov-02 02:30N 51°56' E 004°10'0 0.0
2017-Nov-02 01:57N 51°56' E 004°10'0 0.0
2017-Nov-02 01:30N 51°56' E 004°10'0 0.0
2017-Nov-02 00:48N 51°56' E 004°10'0 0.0
2017-Nov-02 00:27N 51°56' E 004°10'0 0.0
2017-Nov-02 00:00N 51°56' E 004°10'0 0.0
2017-Nov-01 23:30N 51°56' E 004°10'0 0.0
2017-Nov-01 23:00N 51°56' E 004°10'0 0.0
2017-Nov-01 22:30N 51°56' E 004°10'0 0.0
2017-Nov-01 22:00N 51°56' E 004°10'0 0.0
2017-Nov-01 21:24N 51°56' E 004°10'0 0.0
2017-Nov-01 20:57N 51°56' E 004°10'0 0.0
2017-Nov-01 20:30N 51°56' E 004°10'0 0.0
2017-Nov-01 19:54N 51°56' E 004°10'0 0.0
2017-Nov-01 19:30N 51°56' E 004°10'0 0.0
2017-Nov-01 18:54N 51°56' E 004°10'0 0.0
2017-Nov-01 18:30N 51°56' E 004°10'  
Track history (hours):
 
Tides and Currents Weather Stations Pressure Air Temp Water Temp Dewpoint Dewpoint Depression Visibility Wind Speed Wind Dir Waves Ship Positions

M.v.jiaolong Spirit

Last reported at 2017-Nov-11 05:24 UTC. Time now 2017-Nov-22 18:36 UTC.
Position N 24°23' W 017°03'.
Warning: this ship's position is 11 days out of date.

Length 271 m; draft 9.3 m.

Type: Tanker. MMSI: 309813000.

Date/timePositionNaut miles runAvg speedWind from/ knotsBaromVisibWave heightAir tempDewpointWater temp
2017-Nov-11 05:24N 24°23' W 017°03'511.2
2017-Nov-11 05:00N 24°27' W 017°01'511.1
2017-Nov-11 04:30N 24°32' W 016°59'911.3
2017-Nov-11 03:43N 24°40' W 016°55'311.8
2017-Nov-11 03:25N 24°44' W 016°54'198 6.9
2017-Nov-09 22:46N 27°40' W 015°14'312.2
2017-Nov-09 22:30N 27°43' W 015°12'612.0
2017-Nov-09 22:00N 27°48' W 015°09'611.6
2017-Nov-09 21:31N 27°53' W 015°06'611.4
2017-Nov-09 21:00N 27°59' W 015°04'611.5
2017-Nov-09 20:31N 28°04' W 015°02'611.4
2017-Nov-09 20:00N 28°09' W 014°60'611.3
2017-Nov-09 19:29N 28°15' W 014°57'611.9
2017-Nov-09 19:00N 28°20' W 014°55'612.0
2017-Nov-09 18:30N 28°26' W 014°53'612.0
2017-Nov-09 18:00N 28°32' W 014°52'612.0
2017-Nov-09 17:30N 28°38' W 014°50'6111.2
2017-Nov-09 12:05N 29°36' W 014°32'210.8
2017-Nov-09 11:56N 29°38' W 014°32'  
2017-Nov-04 12:04N 49°45' W 003°36'310.6
2017-Nov-04 11:49N 49°46' W 003°32'310.6
2017-Nov-04 11:30N 49°48' W 003°28'510.6
2017-Nov-04 11:00N 49°50' W 003°21'610.3
2017-Nov-04 10:24N 49°53' W 003°12'4 9.7
2017-Nov-04 09:57N 49°56' W 003°06'4 9.2
2017-Nov-04 09:31N 49°58' W 003°01'4 8.5
2017-Nov-04 09:00N 49°59' W 002°54'4 7.7
2017-Nov-04 08:29N 49°60' W 002°48'4 6.2
2017-Nov-04 07:48N 50°01' W 002°42'2 6.7
2017-Nov-04 07:30N 50°01' W 002°39'23 7.3
2017-Nov-04 04:19N 50°07' W 002°04'3 9.9
2017-Nov-04 04:00N 50°08' W 001°60'510.7
2017-Nov-04 03:30N 50°10' W 001°51'611.6
2017-Nov-04 03:00N 50°11' W 001°43'612.4
2017-Nov-04 02:30N 50°13' W 001°34'713.2
2017-Nov-04 02:00N 50°15' W 001°24'1913.2
2017-Nov-04 00:32N 50°20' W 000°54'012.4
2017-Nov-04 00:30N 50°20' W 000°54'2010.8
2017-Nov-03 22:37N 50°26' W 000°23'1 9.5
2017-Nov-03 22:30N 50°26' W 000°21'4 9.1
2017-Nov-03 22:01N 50°27' W 000°14'4 8.4
2017-Nov-03 21:30N 50°28' W 000°08'4 7.9
2017-Nov-03 21:01N 50°29' W 000°02'4 7.5
2017-Nov-03 20:31N 50°30' E 000°04'4 7.3
2017-Nov-03 20:00N 50°31' E 000°09'4 7.3
2017-Nov-03 19:31N 50°32' E 000°15'4 7.7
2017-Nov-03 19:01N 50°34' E 000°20'4 8.4
2017-Nov-03 18:31N 50°35' E 000°27'5 9.3
2017-Nov-03 18:01N 50°36' E 000°34'5 9.9
2017-Nov-03 17:31N 50°38' E 000°41'510.5
2017-Nov-03 17:00N 50°41' E 000°47'510.8
2017-Nov-03 16:31N 50°44' E 000°54'810.8
2017-Nov-03 15:47N 50°49' E 001°04'410.4
2017-Nov-03 15:26N 50°51' E 001°09'510.1
2017-Nov-03 14:54N 50°54' E 001°16'4 9.6
2017-Nov-03 14:30N 50°57' E 001°21'4 8.9
2017-Nov-03 14:01N 51°00' E 001°25'4 8.1
2017-Nov-03 13:31N 51°03' E 001°29'4 7.1
2017-Nov-03 13:00N 51°06' E 001°33'3 6.5
2017-Nov-03 12:31N 51°08' E 001°37'3 6.4
2017-Nov-03 12:01N 51°10' E 001°41'3 6.8
2017-Nov-03 11:31N 51°13' E 001°44'4 7.2
2017-Nov-03 11:01N 51°16' E 001°48'4 7.6
2017-Nov-03 10:31N 51°19' E 001°51'4 8.6
2017-Nov-03 10:00N 51°23' E 001°54'5 9.4
2017-Nov-03 09:31N 51°27' E 001°58'510.5
2017-Nov-03 09:01N 51°30' E 002°04'611.1
2017-Nov-03 08:31N 51°34' E 002°10'6010.9
2017-Nov-03 03:00N 52°04' E 003°34'510.9
2017-Nov-03 02:30N 52°04' E 003°43'510.3
2017-Nov-03 02:00N 52°04' E 003°51'3 5.4
2017-Nov-03 01:31N 52°02' E 003°55'4 8.4
2017-Nov-03 01:01N 52°00' E 004°01'4 7.2
2017-Nov-03 00:30N 51°58' E 004°05'2 3.9
2017-Nov-03 00:00N 51°58' E 004°02'2 2.7
2017-Nov-02 23:25N 51°58' E 003°59'0 0.0
2017-Nov-02 22:58N 51°58' E 003°59'0 0.0
2017-Nov-02 22:25N 51°58' E 003°59'0 0.0
2017-Nov-02 21:58N 51°58' E 003°59'0 0.0
2017-Nov-02 21:28N 51°58' E 003°59'0 0.0
2017-Nov-02 20:49N 51°58' E 003°59'0 0.0
2017-Nov-02 20:28N 51°58' E 003°59'0 0.0
2017-Nov-02 19:55N 51°58' E 003°59'0 0.0
2017-Nov-02 19:25N 51°58' E 003°59'0 0.0
2017-Nov-02 18:58N 51°58' E 003°59'0 0.0
2017-Nov-02 18:28N 51°58' E 003°59'0 0.0
2017-Nov-02 17:49N 51°58' E 003°59'0 0.0
2017-Nov-02 17:28N 51°58' E 003°59'0 0.0
2017-Nov-02 16:58N 51°58' E 003°59'0 0.0
2017-Nov-02 16:25N 51°58' E 003°59'0 0.0
2017-Nov-02 15:52N 51°58' E 003°59'0 0.0
2017-Nov-02 15:22N 51°58' E 003°59'0 0.0
2017-Nov-02 14:58N 51°58' E 003°59'0 0.0
2017-Nov-02 14:19N 51°58' E 003°59'0 0.0
2017-Nov-02 13:52N 51°58' E 003°59'0 0.0
2017-Nov-02 13:01N 51°58' E 003°59'0 0.0
2017-Nov-02 12:55N 51°58' E 003°59'0 0.0
2017-Nov-02 12:28N 51°58' E 003°59'0 0.0
2017-Nov-02 11:58N 51°58' E 003°59'0 0.0
2017-Nov-02 11:28N 51°58' E 003°59'0 0.0
2017-Nov-02 10:58N 51°58' E 003°59'0 0.0
2017-Nov-02 10:22N 51°58' E 003°59'0 0.0
2017-Nov-02 09:55N 51°58' E 003°59'0 0.0
2017-Nov-02 09:30N 51°58' E 003°59'0 0.0
2017-Nov-02 09:00N 51°58' E 003°59'0 0.4
2017-Nov-02 08:30N 51°58' E 003°60'2 3.1
2017-Nov-02 08:00N 51°58' E 004°02'2 4.3
2017-Nov-02 07:30N 51°58' E 004°06'3 5.7
2017-Nov-02 07:00N 51°57' E 004°10'0 1.0
2017-Nov-02 06:30N 51°56' E 004°10'0 0.0
2017-Nov-02 05:51N 51°56' E 004°10'0 0.0
2017-Nov-02 05:21N 51°56' E 004°10'0 0.0
2017-Nov-02 04:57N 51°56' E 004°10'0 0.0
2017-Nov-02 04:30N 51°56' E 004°10'0 0.0
2017-Nov-02 04:00N 51°56' E 004°10'0 0.0
2017-Nov-02 03:30N 51°56' E 004°10'0 0.0
2017-Nov-02 03:00N 51°56' E 004°10'0 0.0
2017-Nov-02 02:30N 51°56' E 004°10'0 0.0
2017-Nov-02 01:57N 51°56' E 004°10'0 0.0
2017-Nov-02 01:30N 51°56' E 004°10'0 0.0
2017-Nov-02 00:48N 51°56' E 004°10'0 0.0
2017-Nov-02 00:27N 51°56' E 004°10'0 0.0
2017-Nov-02 00:00N 51°56' E 004°10'0 0.0
2017-Nov-01 23:30N 51°56' E 004°10'0 0.0
2017-Nov-01 23:00N 51°56' E 004°10'0 0.0
2017-Nov-01 22:30N 51°56' E 004°10'0 0.0
2017-Nov-01 22:00N 51°56' E 004°10'0 0.0
2017-Nov-01 21:24N 51°56' E 004°10'0 0.0
2017-Nov-01 20:57N 51°56' E 004°10'0 0.0
2017-Nov-01 20:30N 51°56' E 004°10'0 0.0
2017-Nov-01 19:54N 51°56' E 004°10'0 0.0
2017-Nov-01 19:30N 51°56' E 004°10'0 0.0
2017-Nov-01 18:54N 51°56' E 004°10'0 0.0
2017-Nov-01 18:30N 51°56' E 004°10'  

Dump ship's entire track history